Time;durP1;ratioP1;P1;durP2;ratioP2;P2;SDS_P1;SDS_P2;PMS_P1;PMS_P2;Temp;Humidity;BMP_temperature;BMP_pressure;BME280_temperature;BME280_humidity;BME280_pressure;Samples;Min_cycle;Max_cycle;Signal;HPM_P1;HPM_P2
2021/06/21 00:00:39;;;;;;;21.20;19.90;;;;;;;;;;5118637;28;20422;-86
2021/06/21 00:03:06;;;;;;;21.83;20.63;;;;;;;;;;5118523;28;20448;-86
2021/06/21 00:05:34;;;;;;;21.40;20.17;;;;;;;;;;5118642;28;20470;-86
2021/06/21 00:08:02;;;;;;;21.47;20.27;;;;;;;;;;5117981;28;20480;-86
2021/06/21 00:10:29;;;;;;;21.50;20.30;;;;;;;;;;5118640;28;20459;-86
2021/06/21 00:12:58;;;;;;;21.83;20.53;;;;;;;;;;5118298;27;20933;-86
2021/06/21 00:15:26;;;;;;;23.00;21.40;;;;;;;;;;5118468;28;20452;-86
2021/06/21 00:20:57;;;;;;;21.87;20.37;;;;;;;;;;5118038;28;20414;-86
2021/06/21 00:23:25;;;;;;;23.30;21.70;;;;;;;;;;5118541;28;20425;-86
2021/06/21 00:25:53;;;;;;;21.97;20.67;;;;;;;;;;5117769;28;20818;-86
2021/06/21 00:28:21;;;;;;;22.03;20.53;;;;;;;;;;5117739;28;20465;-86
2021/06/21 00:30:49;;;;;;;22.10;20.60;;;;;;;;;;5118392;28;20448;-86
2021/06/21 00:33:16;;;;;;;21.40;20.20;;;;;;;;;;5118011;28;20431;-86
2021/06/21 00:35:44;;;;;;;22.30;21.00;;;;;;;;;;5117671;28;20462;-86
2021/06/21 00:38:11;;;;;;;21.93;20.63;;;;;;;;;;5117339;28;20969;-86
2021/06/21 00:40:39;;;;;;;22.67;21.07;;;;;;;;;;5117678;28;20462;-86
2021/06/21 00:43:06;;;;;;;21.87;20.33;;;;;;;;;;5117537;28;20459;-86
2021/06/21 00:45:36;;;;;;;22.90;21.40;;;;;;;;;;5118215;28;20433;-86
2021/06/21 00:48:03;;;;;;;23.00;21.60;;;;;;;;;;5118044;28;20464;-86
2021/06/21 00:50:31;;;;;;;22.77;20.90;;;;;;;;;;5117415;28;20433;-87
2021/06/21 00:53:00;;;;;;;22.00;20.50;;;;;;;;;;5117967;28;20444;-86
2021/06/21 00:55:29;;;;;;;22.10;20.80;;;;;;;;;;5117241;28;20438;-86
2021/06/21 00:57:56;;;;;;;22.83;21.17;;;;;;;;;;5117675;28;20411;-86
2021/06/21 01:00:25;;;;;;;21.40;20.20;;;;;;;;;;5117314;28;20455;-87
2021/06/21 01:02:54;;;;;;;22.40;20.80;;;;;;;;;;5117077;28;20465;-86
2021/06/21 01:05:23;;;;;;;22.30;21.00;;;;;;;;;;5117094;28;20462;-86
2021/06/21 01:07:50;;;;;;;22.67;21.27;;;;;;;;;;5116880;28;21040;-86
2021/06/21 01:10:21;;;;;;;24.10;22.60;;;;;;;;;;5116453;28;20410;-86
2021/06/21 01:13:04;;;;;;;24.77;23.00;;;;;;;;;;5116901;28;20431;-86
2021/06/21 01:15:34;;;;;;;23.43;22.10;;;;;;;;;;5117138;28;20493;-85
2021/06/21 01:18:07;;;;;;;24.43;22.53;;;;;;;;;;5116978;28;20431;-87
2021/06/21 01:20:45;;;;;;;24.03;22.43;;;;;;;;;;5117286;28;20425;-86
2021/06/21 01:23:36;;;;;;;25.30;23.67;;;;;;;;;;5116756;28;20422;-86
2021/06/21 01:26:07;;;;;;;27.67;25.87;;;;;;;;;;5116932;28;20854;-86
2021/06/21 01:28:47;;;;;;;28.27;26.47;;;;;;;;;;5117297;28;20458;-86
2021/06/21 01:31:16;;;;;;;25.90;24.30;;;;;;;;;;5116851;28;20429;-87
2021/06/21 01:33:46;;;;;;;27.50;25.57;;;;;;;;;;5116546;28;20406;-86
2021/06/21 01:36:15;;;;;;;29.30;27.30;;;;;;;;;;5116572;28;20430;-86
2021/06/21 01:38:44;;;;;;;31.40;29.30;;;;;;;;;;5116491;28;20434;-86
2021/06/21 01:41:20;;;;;;;32.53;30.33;;;;;;;;;;5116702;28;20442;-86
2021/06/21 01:43:48;;;;;;;34.33;31.83;;;;;;;;;;5116470;28;20431;-86
2021/06/21 01:46:17;;;;;;;32.90;30.70;;;;;;;;;;5116566;28;20938;-87
2021/06/21 01:48:46;;;;;;;31.97;29.30;;;;;;;;;;5116162;28;20453;-85
2021/06/21 01:51:15;;;;;;;34.60;32.07;;;;;;;;;;5116315;28;20838;-86
2021/06/21 01:53:42;;;;;;;28.90;27.23;;;;;;;;;;5117123;28;20922;-86
2021/06/21 01:56:12;;;;;;;32.07;29.97;;;;;;;;;;5116029;28;20433;-86
2021/06/21 01:58:40;;;;;;;31.97;29.87;;;;;;;;;;5116392;28;20444;-86
2021/06/21 02:01:14;;;;;;;30.20;28.40;;;;;;;;;;5116458;28;20937;-86
2021/06/21 02:03:42;;;;;;;32.93;30.83;;;;;;;;;;5116310;28;20438;-86
2021/06/21 02:06:12;;;;;;;32.30;30.10;;;;;;;;;;5116063;28;20405;-86
2021/06/21 02:08:40;;;;;;;33.20;30.93;;;;;;;;;;5115575;28;20950;-87
2021/06/21 02:11:08;;;;;;;35.43;32.97;;;;;;;;;;5116821;28;20878;-87
2021/06/21 02:13:35;;;;;;;32.67;30.40;;;;;;;;;;5116572;28;20446;-87
2021/06/21 02:16:04;;;;;;;35.97;33.13;;;;;;;;;;5115699;28;20440;-87
2021/06/21 02:18:32;;;;;;;35.83;33.07;;;;;;;;;;5116002;28;20442;-86
2021/06/21 02:20:59;;;;;;;36.90;34.13;;;;;;;;;;5115756;28;20458;-87
2021/06/21 02:23:28;;;;;;;35.20;32.60;;;;;;;;;;5115769;28;20455;-87
2021/06/21 02:25:57;;;;;;;31.50;29.40;;;;;;;;;;5115415;28;20446;-86
2021/06/21 02:28:27;;;;;;;35.00;32.03;;;;;;;;;;5115363;28;20461;-86
2021/06/21 02:30:55;;;;;;;37.40;34.60;;;;;;;;;;5115488;28;20432;-86
2021/06/21 02:33:23;;;;;;;37.60;34.80;;;;;;;;;;5115682;28;20405;-86
2021/06/21 02:35:50;;;;;;;39.40;36.03;;;;;;;;;;5115317;28;20434;-86
2021/06/21 02:38:18;;;;;;;39.63;36.63;;;;;;;;;;5115265;28;20429;-86
2021/06/21 02:40:47;;;;;;;47.07;43.30;;;;;;;;;;5115359;28;20410;-86
2021/06/21 02:43:15;;;;;;;53.17;49.37;;;;;;;;;;5115722;28;20445;-86
2021/06/21 02:45:42;;;;;;;55.53;51.43;;;;;;;;;;5115170;28;20459;-87
2021/06/21 02:48:10;;;;;;;50.87;47.47;;;;;;;;;;5115111;28;20474;-87
2021/06/21 02:50:41;;;;;;;50.93;47.63;;;;;;;;;;5115709;28;20791;-87
2021/06/21 02:53:10;;;;;;;51.40;48.13;;;;;;;;;;5115304;28;20466;-86
2021/06/21 02:55:43;;;;;;;52.27;48.50;;;;;;;;;;5114972;28;20437;-86
2021/06/21 02:58:16;;;;;;;51.77;48.20;;;;;;;;;;5115274;28;20426;-87
2021/06/21 03:00:44;;;;;;;54.63;50.53;;;;;;;;;;5114065;28;20477;-87
2021/06/21 03:03:11;;;;;;;52.67;48.87;;;;;;;;;;5115884;28;20450;-87
2021/06/21 03:05:39;;;;;;;55.00;51.20;;;;;;;;;;5115133;28;20440;-86
2021/06/21 03:08:07;;;;;;;54.93;51.13;;;;;;;;;;5114533;28;20472;-86
2021/06/21 03:10:36;;;;;;;56.37;52.53;;;;;;;;;;5114839;28;20402;-87
2021/06/21 03:13:03;;;;;;;56.07;52.13;;;;;;;;;;5114968;28;20436;-87
2021/06/21 03:15:33;;;;;;;57.13;53.30;;;;;;;;;;5115718;28;20756;-87
2021/06/21 03:18:01;;;;;;;59.07;54.77;;;;;;;;;;5115080;28;20433;-87
2021/06/21 03:20:28;;;;;;;59.53;55.00;;;;;;;;;;5114855;28;20454;-87
2021/06/21 03:22:56;;;;;;;65.60;60.50;;;;;;;;;;5115486;28;20453;-87
2021/06/21 03:25:28;;;;;;;55.80;52.00;;;;;;;;;;5114679;28;20425;-87
2021/06/21 03:27:55;;;;;;;61.03;56.50;;;;;;;;;;5114727;28;20429;-88
2021/06/21 03:30:23;;;;;;;55.87;52.07;;;;;;;;;;5114722;28;20492;-87
2021/06/21 03:32:53;;;;;;;56.37;52.37;;;;;;;;;;5115278;28;20422;-87
2021/06/21 03:35:21;;;;;;;56.80;53.00;;;;;;;;;;5114162;28;20421;-88
2021/06/21 03:37:49;;;;;;;56.00;52.10;;;;;;;;;;5114664;28;20509;-87
2021/06/21 03:40:17;;;;;;;56.00;51.80;;;;;;;;;;5114548;28;20458;-88
2021/06/21 03:42:44;;;;;;;55.30;51.30;;;;;;;;;;5115027;28;20413;-87
2021/06/21 03:45:12;;;;;;;59.47;54.57;;;;;;;;;;5114485;28;20420;-88
2021/06/21 03:47:40;;;;;;;61.53;56.03;;;;;;;;;;5114670;28;20433;-88
2021/06/21 03:50:10;;;;;;;60.07;55.50;;;;;;;;;;5114401;28;20454;-88
2021/06/21 03:52:37;;;;;;;58.57;54.00;;;;;;;;;;5115088;28;20425;-87
2021/06/21 03:55:09;;;;;;;53.00;49.00;;;;;;;;;;5114371;28;20458;-88
2021/06/21 03:57:37;;;;;;;50.87;47.27;;;;;;;;;;5114443;28;20458;-87
2021/06/21 04:00:06;;;;;;;52.90;49.20;;;;;;;;;;5114499;28;20458;-88
2021/06/21 04:02:34;;;;;;;52.33;48.73;;;;;;;;;;5115105;28;20428;-86
2021/06/21 04:05:01;;;;;;;50.17;46.87;;;;;;;;;;5114617;28;20418;-87
2021/06/21 04:07:30;;;;;;;51.87;48.20;;;;;;;;;;5114450;28;20413;-88
2021/06/21 04:09:58;;;;;;;51.10;47.63;;;;;;;;;;5113658;28;20879;-82
2021/06/21 04:12:25;;;;;;;50.00;46.50;;;;;;;;;;5113992;28;20526;-82
2021/06/21 04:14:53;;;;;;;50.43;46.70;;;;;;;;;;5113815;28;20442;-82
2021/06/21 04:17:21;;;;;;;48.60;45.40;;;;;;;;;;5114400;28;20440;-88
2021/06/21 04:19:48;;;;;;;49.77;46.67;;;;;;;;;;5113220;28;20437;-88
2021/06/21 04:22:15;;;;;;;50.37;46.50;;;;;;;;;;5114325;28;20492;-83
2021/06/21 04:24:44;;;;;;;48.90;45.80;;;;;;;;;;5113468;28;20410;-82
2021/06/21 04:27:13;;;;;;;49.47;45.77;;;;;;;;;;5113824;28;20428;-82
2021/06/21 04:29:40;;;;;;;47.53;44.43;;;;;;;;;;5114110;28;20452;-88
2021/06/21 04:32:08;;;;;;;48.37;45.27;;;;;;;;;;5114073;28;20442;-88
2021/06/21 04:34:35;;;;;;;49.23;46.13;;;;;;;;;;5114459;28;20429;-86
2021/06/21 04:37:03;;;;;;;50.40;47.07;;;;;;;;;;5113400;28;20424;-82
2021/06/21 04:39:30;;;;;;;49.83;46.07;;;;;;;;;;5113361;28;20903;-82
2021/06/21 04:41:59;;;;;;;48.33;45.23;;;;;;;;;;5113353;28;20409;-82
2021/06/21 04:44:26;;;;;;;46.83;43.80;;;;;;;;;;5113577;28;20416;-82
2021/06/21 04:46:54;;;;;;;47.30;44.20;;;;;;;;;;5115849;28;20414;-82
2021/06/21 04:49:21;;;;;;;45.60;42.43;;;;;;;;;;5117004;28;20453;-82
2021/06/21 04:51:50;;;;;;;46.20;42.90;;;;;;;;;;5117222;28;20453;-81
2021/06/21 04:54:17;;;;;;;45.33;42.43;;;;;;;;;;5116818;28;21005;-82
2021/06/21 04:56:45;;;;;;;45.67;42.57;;;;;;;;;;5116635;28;20416;-82
2021/06/21 04:59:14;;;;;;;49.33;45.77;;;;;;;;;;5117159;28;20421;-86
2021/06/21 05:01:41;;;;;;;45.93;42.77;;;;;;;;;;5117765;28;20425;-87
2021/06/21 05:04:08;;;;;;;42.83;40.03;;;;;;;;;;5117231;27;20413;-86
2021/06/21 05:06:36;;;;;;;41.80;39.00;;;;;;;;;;5117424;28;20450;-82
2021/06/21 05:09:04;;;;;;;44.83;42.00;;;;;;;;;;5116308;28;20489;-82
2021/06/21 05:11:31;;;;;;;44.87;41.97;;;;;;;;;;5116905;28;20409;-82
2021/06/21 05:13:59;;;;;;;43.53;40.83;;;;;;;;;;5116793;28;20420;-82
2021/06/21 05:16:28;;;;;;;44.47;41.67;;;;;;;;;;5116476;28;20449;-82
2021/06/21 05:18:56;;;;;;;44.60;41.40;;;;;;;;;;5116701;28;20404;-82
2021/06/21 05:21:23;;;;;;;44.40;41.50;;;;;;;;;;5117542;28;20821;-82
2021/06/21 05:23:51;;;;;;;49.03;45.43;;;;;;;;;;5116555;28;20454;-82
2021/06/21 05:26:18;;;;;;;48.83;45.63;;;;;;;;;;5115005;28;20932;-82
2021/06/21 05:28:46;;;;;;;50.50;46.93;;;;;;;;;;5116143;28;20518;-82
2021/06/21 05:31:13;;;;;;;48.20;44.90;;;;;;;;;;5116362;28;20431;-82
2021/06/21 05:33:43;;;;;;;44.20;41.40;;;;;;;;;;5116438;28;20461;-82
2021/06/21 05:36:11;;;;;;;46.83;43.77;;;;;;;;;;5116385;28;20418;-82
2021/06/21 05:38:39;;;;;;;48.83;45.37;;;;;;;;;;5116290;28;20404;-82
2021/06/21 05:41:08;;;;;;;48.50;45.10;;;;;;;;;;5116281;28;20413;-86
2021/06/21 05:43:35;;;;;;;46.73;43.70;;;;;;;;;;5115611;28;20449;-86
2021/06/21 05:46:03;;;;;;;45.57;42.47;;;;;;;;;;5116417;28;20875;-86
2021/06/21 05:48:30;;;;;;;51.90;46.57;;;;;;;;;;5116311;28;20431;-82
2021/06/21 05:51:01;;;;;;;63.97;58.60;;;;;;;;;;5116050;28;20831;-83
2021/06/21 05:53:29;;;;;;;74.33;64.03;;;;;;;;;;5116148;28;20891;-82
2021/06/21 05:55:56;;;;;;;68.63;62.87;;;;;;;;;;5116409;28;20417;-88
2021/06/21 05:58:24;;;;;;;63.53;58.00;;;;;;;;;;5116074;27;20421;-89
2021/06/21 06:00:51;;;;;;;59.30;55.00;;;;;;;;;;5116158;28;20461;-82
2021/06/21 06:03:19;;;;;;;53.37;49.87;;;;;;;;;;5115700;28;20441;-82
2021/06/21 06:05:46;;;;;;;58.00;53.60;;;;;;;;;;5115765;28;20434;-81
2021/06/21 06:08:15;;;;;;;49.53;45.57;;;;;;;;;;5115318;28;20459;-82
2021/06/21 06:10:42;;;;;;;48.87;46.27;;;;;;;;;;5115376;28;20826;-77
2021/06/21 06:13:10;;;;;;;49.97;47.27;;;;;;;;;;5114774;28;20423;-96
2021/06/21 06:15:38;;;;;;;51.43;48.83;;;;;;;;;;5129624;28;20429;-96
2021/06/21 06:18:05;;;;;;;46.97;44.67;;;;;;;;;;5128507;28;20459;-94
2021/06/21 06:20:33;;;;;;;50.97;48.30;;;;;;;;;;5118214;28;20424;-84
2021/06/21 06:23:00;;;;;;;53.50;50.80;;;;;;;;;;5115794;28;20912;-84
2021/06/21 06:25:29;;;;;;;56.07;52.77;;;;;;;;;;5116013;28;20928;-85
2021/06/21 06:27:58;;;;;;;51.53;48.77;;;;;;;;;;5114620;28;20489;-84
2021/06/21 06:30:26;;;;;;;50.60;47.80;;;;;;;;;;5115691;28;20543;-84
2021/06/21 06:32:53;;;;;;;49.53;47.03;;;;;;;;;;5115551;28;20425;-84
2021/06/21 06:35:21;;;;;;;50.13;47.53;;;;;;;;;;5115505;28;20471;-84
2021/06/21 06:37:49;;;;;;;52.33;49.63;;;;;;;;;;5115047;28;20446;-84
2021/06/21 06:40:17;;;;;;;51.27;48.57;;;;;;;;;;5115235;28;20412;-84
2021/06/21 06:42:46;;;;;;;47.57;45.07;;;;;;;;;;5115539;28;20416;-86
2021/06/21 06:45:14;;;;;;;52.20;49.30;;;;;;;;;;5115030;28;20810;-84
2021/06/21 06:47:42;;;;;;;50.80;48.10;;;;;;;;;;5115238;28;20438;-84
2021/06/21 06:50:09;;;;;;;52.03;49.00;;;;;;;;;;5115230;28;20474;-84
2021/06/21 06:52:37;;;;;;;49.07;46.43;;;;;;;;;;5114942;28;20459;-85
2021/06/21 06:57:51;;;;;;;51.63;48.63;;;;;;;;;;5114973;28;20494;-81
2021/06/21 07:00:19;;;;;;;50.43;47.80;;;;;;;;;;5114501;28;20901;-82
2021/06/21 07:02:47;;;;;;;48.73;46.13;;;;;;;;;;5114410;28;20408;-81
2021/06/21 07:05:14;;;;;;;47.90;44.90;;;;;;;;;;5114303;28;20473;-81
2021/06/21 07:07:42;;;;;;;47.80;45.30;;;;;;;;;;5114605;28;20472;-75
2021/06/21 07:10:10;;;;;;;47.30;45.00;;;;;;;;;;5113435;28;20498;-83
2021/06/21 07:12:37;;;;;;;47.37;44.97;;;;;;;;;;5114688;28;20424;-81
2021/06/21 07:15:07;;;;;;;46.90;44.40;;;;;;;;;;5114433;28;20420;-80
2021/06/21 07:17:34;;;;;;;49.00;46.30;;;;;;;;;;5114305;28;20432;-78
2021/06/21 07:20:02;;;;;;;46.70;44.43;;;;;;;;;;5114153;28;20893;-80
2021/06/21 07:22:29;;;;;;;48.77;46.37;;;;;;;;;;5114152;28;20901;-81
2021/06/21 07:24:57;;;;;;;48.43;46.03;;;;;;;;;;5113949;28;20495;-80
2021/06/21 07:27:25;;;;;;;47.30;45.03;;;;;;;;;;5114366;28;20444;-87
2021/06/21 07:29:53;;;;;;;47.30;45.00;;;;;;;;;;5113963;28;20970;-80
2021/06/21 07:32:22;;;;;;;44.40;42.30;;;;;;;;;;5113024;28;20532;-79
2021/06/21 07:34:49;;;;;;;43.73;41.30;;;;;;;;;;5113952;28;20909;-79
2021/06/21 07:37:17;;;;;;;42.83;40.73;;;;;;;;;;5114281;28;20430;-79
2021/06/21 07:39:44;;;;;;;43.10;40.90;;;;;;;;;;5113065;28;20440;-82
2021/06/21 07:42:12;;;;;;;42.17;40.17;;;;;;;;;;5114161;28;20408;-81
2021/06/21 07:44:39;;;;;;;43.43;41.23;;;;;;;;;;5114125;28;20438;-82
2021/06/21 07:47:07;;;;;;;42.80;40.60;;;;;;;;;;5114251;28;20439;-83
2021/06/21 07:49:36;;;;;;;42.37;40.20;;;;;;;;;;5114129;28;20453;-82
2021/06/21 07:52:03;;;;;;;41.60;39.50;;;;;;;;;;5113862;28;20759;-82
2021/06/21 07:54:31;;;;;;;42.57;40.57;;;;;;;;;;5113903;28;20444;-82
2021/06/21 07:56:58;;;;;;;44.30;41.90;;;;;;;;;;5114015;28;20425;-81
2021/06/21 07:59:25;;;;;;;39.80;37.80;;;;;;;;;;5114117;28;20410;-82
2021/06/21 08:01:53;;;;;;;39.87;37.87;;;;;;;;;;5113705;28;20906;-82
2021/06/21 08:04:20;;;;;;;39.37;37.37;;;;;;;;;;5113768;28;20917;-82
2021/06/21 08:06:49;;;;;;;37.30;35.50;;;;;;;;;;5114023;28;20911;-82
2021/06/21 08:09:17;;;;;;;40.37;38.17;;;;;;;;;;5113465;28;20489;-82
2021/06/21 08:11:44;;;;;;;40.83;38.60;;;;;;;;;;5113897;28;20488;-82
2021/06/21 08:14:11;;;;;;;41.60;39.40;;;;;;;;;;5113890;28;20444;-82
2021/06/21 08:16:39;;;;;;;37.60;35.80;;;;;;;;;;5114668;28;20446;-82
2021/06/21 08:19:06;;;;;;;36.93;35.13;;;;;;;;;;5113530;28;20926;-80
2021/06/21 08:21:33;;;;;;;39.57;37.60;;;;;;;;;;5117080;28;20454;-82
2021/06/21 08:24:02;;;;;;;37.73;35.73;;;;;;;;;;5117790;28;20442;-78
2021/06/21 08:26:30;;;;;;;38.00;36.10;;;;;;;;;;5117210;28;20424;-83
2021/06/21 08:28:57;;;;;;;38.17;36.17;;;;;;;;;;5116630;28;20430;-83
2021/06/21 08:31:24;;;;;;;36.80;34.80;;;;;;;;;;5117284;28;20459;-83
2021/06/21 08:33:53;;;;;;;39.40;37.50;;;;;;;;;;5117228;28;20425;-77
2021/06/21 08:36:21;;;;;;;38.97;37.07;;;;;;;;;;5117691;28;20813;-85
2021/06/21 08:38:48;;;;;;;38.03;36.23;;;;;;;;;;5118084;28;20439;-86
2021/06/21 08:41:17;;;;;;;39.90;37.97;;;;;;;;;;5117930;28;20413;-84
2021/06/21 08:43:44;;;;;;;35.03;33.33;;;;;;;;;;5117321;28;20447;-84
2021/06/21 08:46:12;;;;;;;34.13;32.53;;;;;;;;;;5117617;28;20438;-81
2021/06/21 08:48:43;;;;;;;34.43;32.63;;;;;;;;;;5117317;28;20413;-86
2021/06/21 08:51:13;;;;;;;33.53;31.93;;;;;;;;;;5117302;28;20463;-86
2021/06/21 08:53:40;;;;;;;32.73;31.23;;;;;;;;;;5117623;28;20885;-85
2021/06/21 08:56:10;;;;;;;35.20;32.93;;;;;;;;;;5117632;28;20422;-84
2021/06/21 08:58:39;;;;;;;32.77;31.13;;;;;;;;;;5117157;28;20437;-88
2021/06/21 09:01:06;;;;;;;32.40;30.17;;;;;;;;;;5116692;28;20482;-88
2021/06/21 09:03:34;;;;;;;31.27;29.50;;;;;;;;;;5117999;28;20449;-88
2021/06/21 09:06:02;;;;;;;31.13;29.60;;;;;;;;;;5119946;28;20820;-95
2021/06/21 09:08:29;;;;;;;27.50;26.20;;;;;;;;;;5118928;28;20456;-96
2021/06/21 09:10:56;;;;;;;29.80;28.40;;;;;;;;;;5119369;28;20479;-96
2021/06/21 09:13:24;;;;;;;30.70;29.00;;;;;;;;;;5118029;28;20525;-86
2021/06/21 09:15:53;;;;;;;26.50;25.30;;;;;;;;;;5116486;28;20447;-93
2021/06/21 09:18:28;;;;;;;28.50;27.03;;;;;;;;;;5117339;28;20417;-85
2021/06/21 09:21:10;;;;;;;26.67;25.40;;;;;;;;;;5117168;28;20823;-83
2021/06/21 09:23:37;;;;;;;26.90;25.40;;;;;;;;;;5115122;28;20438;-83
2021/06/21 09:26:16;;;;;;;25.87;24.47;;;;;;;;;;5116561;28;20446;-83
2021/06/21 09:28:43;;;;;;;26.00;24.60;;;;;;;;;;5116419;28;20435;-83
2021/06/21 09:31:13;;;;;;;29.03;27.13;;;;;;;;;;5115898;28;20984;-84
2021/06/21 09:33:40;;;;;;;25.73;24.23;;;;;;;;;;5116249;28;20526;-83
2021/06/21 09:36:08;;;;;;;25.93;24.13;;;;;;;;;;5115466;28;20405;-83
2021/06/21 09:38:35;;;;;;;26.43;24.93;;;;;;;;;;5115419;28;20537;-83
2021/06/21 09:41:03;;;;;;;26.33;24.90;;;;;;;;;;5116181;28;20409;-84
2021/06/21 09:43:31;;;;;;;26.40;25.10;;;;;;;;;;5116305;28;20823;-83
2021/06/21 09:46:19;;;;;;;26.37;24.93;;;;;;;;;;5116177;28;20787;-83
2021/06/21 09:48:49;;;;;;;23.80;22.60;;;;;;;;;;5116087;28;20889;-84
2021/06/21 09:51:24;;;;;;;24.00;22.60;;;;;;;;;;5116179;28;20513;-83
2021/06/21 09:53:59;;;;;;;24.13;22.70;;;;;;;;;;5115830;28;20450;-83
2021/06/21 09:56:40;;;;;;;25.40;24.10;;;;;;;;;;5116015;27;20413;-83
2021/06/21 09:59:21;;;;;;;23.90;22.67;;;;;;;;;;5116137;28;20445;-84
2021/06/21 10:02:01;;;;;;;23.90;22.70;;;;;;;;;;5115859;28;20459;-83
2021/06/21 10:04:30;;;;;;;25.17;23.67;;;;;;;;;;5115904;28;20418;-83
2021/06/21 10:06:57;;;;;;;29.37;27.83;;;;;;;;;;5115448;28;20812;-83
2021/06/21 10:09:26;;;;;;;31.20;29.30;;;;;;;;;;5115602;28;20453;-83
2021/06/21 10:11:54;;;;;;;33.53;31.70;;;;;;;;;;5115840;28;20527;-84
2021/06/21 10:14:22;;;;;;;36.43;34.13;;;;;;;;;;5115907;27;20439;-84
2021/06/21 10:16:50;;;;;;;38.90;36.60;;;;;;;;;;5115769;28;20406;-83
2021/06/21 10:19:18;;;;;;;38.90;36.67;;;;;;;;;;5114358;28;20453;-84
2021/06/21 10:21:48;;;;;;;37.13;35.10;;;;;;;;;;5116449;28;20413;-83
2021/06/21 10:24:17;;;;;;;36.97;34.83;;;;;;;;;;5115623;28;20435;-83
2021/06/21 10:26:50;;;;;;;37.13;35.03;;;;;;;;;;5115206;28;20435;-84
2021/06/21 10:29:18;;;;;;;36.43;34.23;;;;;;;;;;5115850;28;20417;-84
2021/06/21 10:31:46;;;;;;;35.77;33.80;;;;;;;;;;5115193;28;20479;-83
2021/06/21 10:34:14;;;;;;;34.50;32.70;;;;;;;;;;5115353;28;20466;-83
2021/06/21 10:36:42;;;;;;;32.00;30.40;;;;;;;;;;5115521;28;20428;-83
2021/06/21 10:39:13;;;;;;;31.07;28.77;;;;;;;;;;5115472;28;20921;-83
2021/06/21 10:41:40;;;;;;;30.40;28.80;;;;;;;;;;5114975;28;20846;-83
2021/06/21 10:44:07;;;;;;;30.20;28.60;;;;;;;;;;5114768;28;20925;-83
2021/06/21 10:46:35;;;;;;;29.03;27.53;;;;;;;;;;5115156;28;20413;-83
2021/06/21 10:49:21;;;;;;;29.23;27.83;;;;;;;;;;5115117;28;20406;-83
2021/06/21 10:51:48;;;;;;;29.03;27.53;;;;;;;;;;5114610;28;20491;-83
2021/06/21 10:54:23;;;;;;;30.03;28.53;;;;;;;;;;5114750;28;20487;-83
2021/06/21 10:56:52;;;;;;;29.67;28.17;;;;;;;;;;5114496;28;20446;-83
2021/06/21 10:59:20;;;;;;;27.67;26.37;;;;;;;;;;5115422;28;20436;-83
2021/06/21 11:01:49;;;;;;;28.30;26.90;;;;;;;;;;5114822;28;20442;-84
2021/06/21 11:04:31;;;;;;;27.43;26.03;;;;;;;;;;5114465;28;20990;-83
2021/06/21 11:07:09;;;;;;;28.30;26.70;;;;;;;;;;5114173;28;20471;-83
2021/06/21 11:09:42;;;;;;;27.23;25.83;;;;;;;;;;5114263;28;20457;-83
2021/06/21 11:12:26;;;;;;;27.70;26.20;;;;;;;;;;5114350;28;20906;-84
2021/06/21 11:15:09;;;;;;;27.63;26.23;;;;;;;;;;5101448;28;20786;-83
2021/06/21 11:17:53;;;;;;;27.73;26.13;;;;;;;;;;5114600;28;20539;-83
2021/06/21 11:20:30;;;;;;;27.87;26.47;;;;;;;;;;5114359;28;20421;-83
2021/06/21 11:22:59;;;;;;;26.43;25.00;;;;;;;;;;5114253;28;20413;-83
2021/06/21 11:25:29;;;;;;;28.00;26.60;;;;;;;;;;5114402;28;20450;-83
2021/06/21 11:27:58;;;;;;;26.70;25.40;;;;;;;;;;5114181;28;20432;-83
2021/06/21 11:30:27;;;;;;;27.57;26.10;;;;;;;;;;5114364;28;20459;-83
2021/06/21 11:32:57;;;;;;;28.13;26.33;;;;;;;;;;5115368;28;20451;-83
2021/06/21 11:35:43;;;;;;;26.83;25.33;;;;;;;;;;5114445;28;20459;-83
2021/06/21 11:38:23;;;;;;;26.60;25.20;;;;;;;;;;5114355;28;20411;-83
2021/06/21 11:41:12;;;;;;;26.33;24.97;;;;;;;;;;5114291;28;20438;-83
2021/06/21 11:43:45;;;;;;;27.23;25.83;;;;;;;;;;5113756;28;20930;-83
2021/06/21 11:46:13;;;;;;;27.40;25.73;;;;;;;;;;5113985;28;20891;-83
2021/06/21 11:48:42;;;;;;;29.07;26.57;;;;;;;;;;5114281;28;20419;-83
2021/06/21 11:51:13;;;;;;;23.63;22.43;;;;;;;;;;5113799;28;20480;-84
2021/06/21 11:53:45;;;;;;;23.50;22.27;;;;;;;;;;5114308;28;20437;-83
2021/06/21 11:56:15;;;;;;;23.80;22.60;;;;;;;;;;5117133;28;20442;-83
2021/06/21 11:58:42;;;;;;;22.43;21.13;;;;;;;;;;5118542;28;20410;-83
2021/06/21 12:01:17;;;;;;;22.40;21.10;;;;;;;;;;5118389;28;20407;-84
2021/06/21 12:03:45;;;;;;;23.27;21.97;;;;;;;;;;5117043;28;20825;-83
2021/06/21 12:06:16;;;;;;;22.87;21.73;;;;;;;;;;5117003;28;20505;-83
2021/06/21 12:08:44;;;;;;;21.03;20.03;;;;;;;;;;5117831;28;20474;-83
2021/06/21 12:11:17;;;;;;;23.67;22.07;;;;;;;;;;5117860;28;20943;-83
2021/06/21 12:13:45;;;;;;;23.70;22.43;;;;;;;;;;5117815;28;20951;-84
2021/06/21 12:16:16;;;;;;;22.90;21.80;;;;;;;;;;5117061;28;20415;-83
2021/06/21 12:18:44;;;;;;;22.70;21.47;;;;;;;;;;5117795;28;20437;-84
2021/06/21 12:21:11;;;;;;;23.27;21.37;;;;;;;;;;5118117;28;20411;-84
2021/06/21 12:23:38;;;;;;;22.90;21.60;;;;;;;;;;5117657;28;20419;-83
2021/06/21 12:26:06;;;;;;;23.57;22.17;;;;;;;;;;5116863;28;20418;-83
2021/06/21 12:28:35;;;;;;;41.30;25.80;;;;;;;;;;5117503;28;20452;-83
2021/06/21 12:31:05;;;;;;;41.80;39.50;;;;;;;;;;5117842;28;20457;-84
2021/06/21 12:33:35;;;;;;;35.70;33.80;;;;;;;;;;5117827;28;20414;-84
2021/06/21 12:36:12;;;;;;;33.30;31.50;;;;;;;;;;5117510;28;20409;-84
2021/06/21 12:38:41;;;;;;;33.30;31.30;;;;;;;;;;5117764;28;20762;-84
2021/06/21 12:41:12;;;;;;;30.20;28.40;;;;;;;;;;5117467;28;20425;-84
2021/06/21 12:43:41;;;;;;;28.50;27.00;;;;;;;;;;5117602;28;20423;-84
2021/06/21 12:46:18;;;;;;;30.90;28.60;;;;;;;;;;5117675;28;20457;-84
2021/06/21 12:48:46;;;;;;;26.63;25.23;;;;;;;;;;5117328;28;20438;-84
2021/06/21 12:51:14;;;;;;;28.40;26.60;;;;;;;;;;5117402;28;20504;-84
2021/06/21 12:53:45;;;;;;;25.77;24.27;;;;;;;;;;5117436;28;20403;-84
2021/06/21 12:56:23;;;;;;;26.90;25.40;;;;;;;;;;5116917;28;20414;-83
2021/06/21 12:58:53;;;;;;;24.17;22.80;;;;;;;;;;5115888;28;20911;-83
2021/06/21 13:01:38;;;;;;;26.47;24.97;;;;;;;;;;5116862;28;20552;-85
2021/06/21 13:04:15;;;;;;;26.33;24.70;;;;;;;;;;5116844;28;20948;-85
2021/06/21 13:06:43;;;;;;;27.00;25.50;;;;;;;;;;5115686;28;20471;-84
2021/06/21 13:09:11;;;;;;;26.50;25.00;;;;;;;;;;5116665;28;20483;-84
2021/06/21 13:11:52;;;;;;;28.30;26.30;;;;;;;;;;5116836;28;20475;-83
2021/06/21 13:14:22;;;;;;;31.53;29.30;;;;;;;;;;5115266;28;20989;-83
2021/06/21 13:16:49;;;;;;;39.07;36.00;;;;;;;;;;5115611;28;20850;-83
2021/06/21 13:19:17;;;;;;;38.67;35.70;;;;;;;;;;5116475;28;20402;-83
2021/06/21 13:21:46;;;;;;;43.00;39.50;;;;;;;;;;5116730;28;20428;-83
2021/06/21 13:24:15;;;;;;;47.53;44.07;;;;;;;;;;5116845;28;20458;-86
2021/06/21 13:26:45;;;;;;;53.93;49.63;;;;;;;;;;5098779;28;20832;-86
2021/06/21 13:29:24;;;;;;;46.83;43.10;;;;;;;;;;5117036;28;20425;-86
2021/06/21 13:31:52;;;;;;;56.50;51.80;;;;;;;;;;5116218;28;20479;-84
2021/06/21 13:34:39;;;;;;;60.13;54.80;;;;;;;;;;5115147;28;20909;-83
2021/06/21 13:37:07;;;;;;;58.60;53.70;;;;;;;;;;5116582;28;20431;-84
2021/06/21 13:39:34;;;;;;;65.97;60.07;;;;;;;;;;5116569;28;20436;-83
2021/06/21 13:42:03;;;;;;;66.80;60.20;;;;;;;;;;5116472;28;20450;-83
2021/06/21 13:44:32;;;;;;;55.87;51.23;;;;;;;;;;5115972;28;20452;-83
2021/06/21 13:46:59;;;;;;;53.43;49.10;;;;;;;;;;5116311;28;20421;-83
2021/06/21 13:49:28;;;;;;;53.13;48.97;;;;;;;;;;5116348;28;20413;-83
2021/06/21 13:52:00;;;;;;;61.33;56.10;;;;;;;;;;5116130;28;20488;-84
2021/06/21 13:54:28;;;;;;;58.93;53.73;;;;;;;;;;5116154;28;20771;-84
2021/06/21 13:57:09;;;;;;;61.70;55.90;;;;;;;;;;5116138;28;20491;-83
2021/06/21 13:59:51;;;;;;;64.30;58.17;;;;;;;;;;5116027;28;20416;-84
2021/06/21 14:02:32;;;;;;;63.47;57.20;;;;;;;;;;5115813;28;20433;-83
2021/06/21 14:04:59;;;;;;;64.33;57.83;;;;;;;;;;5115826;28;20469;-83
2021/06/21 14:07:27;;;;;;;68.03;60.97;;;;;;;;;;5115628;28;20441;-83
2021/06/21 14:09:55;;;;;;;64.87;58.03;;;;;;;;;;5115450;28;20455;-83
2021/06/21 14:12:22;;;;;;;55.03;49.60;;;;;;;;;;5116452;28;20457;-83
2021/06/21 14:14:51;;;;;;;59.00;52.90;;;;;;;;;;5115676;28;20458;-83
2021/06/21 14:17:21;;;;;;;58.63;53.03;;;;;;;;;;5115206;28;20415;-83
2021/06/21 14:19:48;;;;;;;46.27;41.97;;;;;;;;;;5115278;28;20592;-83
2021/06/21 14:22:16;;;;;;;47.20;42.93;;;;;;;;;;5115718;28;20433;-83
2021/06/21 14:24:44;;;;;;;38.93;35.43;;;;;;;;;;5115515;28;20409;-83
2021/06/21 14:27:11;;;;;;;39.00;35.70;;;;;;;;;;5115585;28;20437;-83
2021/06/21 14:29:39;;;;;;;41.10;37.60;;;;;;;;;;5115221;28;20432;-83
2021/06/21 14:32:10;;;;;;;35.77;32.67;;;;;;;;;;5115372;28;20456;-83
2021/06/21 14:34:37;;;;;;;34.03;31.13;;;;;;;;;;5113952;28;20525;-83